createdAt,value
2022-10-10T00:01:19.458Z,4.30
2022-10-10T00:03:46.955Z,3.78
2022-10-10T00:06:14.774Z,3.97
2022-10-10T00:08:42.090Z,4.13
2022-10-10T00:11:09.566Z,4.32
2022-10-10T00:13:36.804Z,4.28
2022-10-10T00:16:04.771Z,4.10
2022-10-10T00:18:32.490Z,4.63
2022-10-10T00:20:59.760Z,4.60
2022-10-10T00:23:27.291Z,4.47
2022-10-10T00:25:54.555Z,4.50
2022-10-10T00:28:21.892Z,4.55
2022-10-10T00:30:49.265Z,4.57
2022-10-10T00:33:16.511Z,5.22
2022-10-10T00:35:43.779Z,4.72
2022-10-10T00:38:11.439Z,5.25
2022-10-10T00:40:49.279Z,4.97
2022-10-10T00:43:17.004Z,5.05
2022-10-10T00:45:45.452Z,5.00
2022-10-10T00:48:17.272Z,4.72
2022-10-10T00:50:51.662Z,5.25
2022-10-10T00:53:20.217Z,5.25
2022-10-10T00:55:47.879Z,5.35
2022-10-10T00:58:15.547Z,5.43
2022-10-10T01:00:42.971Z,5.70
2022-10-10T01:03:10.245Z,5.57
2022-10-10T01:05:38.011Z,5.55
2022-10-10T01:08:06.112Z,5.13
2022-10-10T01:10:35.562Z,5.20
2022-10-10T01:13:22.542Z,5.18
2022-10-10T01:15:51.680Z,5.57
2022-10-10T01:18:21.998Z,5.47
2022-10-10T01:20:58.426Z,5.15
2022-10-10T01:23:28.655Z,5.03
2022-10-10T01:25:55.887Z,4.90
2022-10-10T01:28:27.820Z,5.32
2022-10-10T01:30:57.420Z,4.30
2022-10-10T01:33:32.664Z,4.38
2022-10-10T01:36:05.063Z,4.68
2022-10-10T01:38:37.283Z,4.78
2022-10-10T01:41:11.427Z,4.75
2022-10-10T01:43:38.684Z,5.40
2022-10-10T01:46:13.334Z,4.97
2022-10-10T01:48:40.708Z,5.38
2022-10-10T01:51:26.625Z,5.57
2022-10-10T01:54:19.133Z,6.40
2022-10-10T01:56:49.966Z,5.57
2022-10-10T01:59:43.877Z,6.50
2022-10-10T02:02:11.144Z,6.10
2022-10-10T02:04:56.945Z,6.13
2022-10-10T02:07:38.421Z,6.57
2022-10-10T02:10:07.630Z,6.57
2022-10-10T02:12:35.844Z,7.00
2022-10-10T02:15:09.141Z,7.53
2022-10-10T02:17:38.555Z,7.90
2022-10-10T02:20:07.122Z,8.02
2022-10-10T02:22:35.015Z,8.20
2022-10-10T02:25:02.396Z,8.70
2022-10-10T02:27:33.140Z,9.00
2022-10-10T02:30:03.417Z,10.60
2022-10-10T02:32:37.389Z,9.60
2022-10-10T02:35:07.874Z,9.68
2022-10-10T02:37:36.096Z,8.65
2022-10-10T02:40:05.711Z,9.18
2022-10-10T02:42:33.154Z,8.07
2022-10-10T02:45:00.708Z,8.55
2022-10-10T02:47:28.217Z,7.47
2022-10-10T02:49:55.498Z,9.18
2022-10-10T02:52:22.888Z,7.57
2022-10-10T02:54:50.397Z,8.05
2022-10-10T02:57:17.714Z,8.13
2022-10-10T02:59:47.311Z,7.75
2022-10-10T03:02:14.606Z,6.15
2022-10-10T03:04:42.409Z,7.93
2022-10-10T03:07:09.879Z,8.10
2022-10-10T03:09:37.162Z,7.15
2022-10-10T03:12:04.861Z,10.25
2022-10-10T03:14:32.101Z,8.10
2022-10-10T03:16:59.435Z,9.48
2022-10-10T03:19:26.872Z,9.80
2022-10-10T03:21:54.182Z,9.88
2022-10-10T03:24:21.438Z,9.73
2022-10-10T03:26:48.692Z,10.35
2022-10-10T03:29:15.952Z,10.63
2022-10-10T03:31:43.202Z,12.40
2022-10-10T03:34:10.473Z,10.13
2022-10-10T03:36:37.726Z,10.23
2022-10-10T03:39:05.573Z,10.30
2022-10-10T03:41:33.008Z,9.73
2022-10-10T03:44:00.327Z,9.45
2022-10-10T03:46:27.843Z,8.82
2022-10-10T03:48:55.174Z,10.68
2022-10-10T03:51:22.439Z,9.68
2022-10-10T03:53:49.762Z,9.40
2022-10-10T03:56:17.075Z,9.52
2022-10-10T03:58:44.362Z,9.75
2022-10-10T04:01:11.827Z,10.43
2022-10-10T04:03:39.149Z,9.30
2022-10-10T04:06:06.502Z,9.95
2022-10-10T04:08:33.844Z,10.70
2022-10-10T04:11:01.152Z,9.68
2022-10-10T04:13:28.465Z,8.77
2022-10-10T04:15:57.140Z,9.02
2022-10-10T04:18:24.961Z,9.55
2022-10-10T04:20:52.320Z,9.30
2022-10-10T04:23:19.944Z,9.02
2022-10-10T04:25:48.599Z,10.30
2022-10-10T04:28:16.762Z,9.50
2022-10-10T04:30:44.039Z,10.23
2022-10-10T04:33:11.905Z,9.02
2022-10-10T04:35:39.462Z,8.73
2022-10-10T04:38:07.411Z,10.68
2022-10-10T04:40:36.513Z,8.70
2022-10-10T04:43:03.789Z,9.30
2022-10-10T04:45:35.234Z,10.50
2022-10-10T04:48:04.591Z,10.25
2022-10-10T04:50:31.859Z,10.40
2022-10-10T04:52:59.148Z,10.63
2022-10-10T04:55:26.420Z,11.02
2022-10-10T04:57:53.898Z,10.15
2022-10-10T05:00:21.275Z,10.00
2022-10-10T05:02:48.725Z,11.02
2022-10-10T05:05:16.284Z,10.75
2022-10-10T05:07:43.569Z,12.55
2022-10-10T05:10:10.891Z,11.40
2022-10-10T05:12:38.142Z,12.55
2022-10-10T05:15:05.476Z,13.65
2022-10-10T05:17:32.835Z,14.95
2022-10-10T05:20:00.088Z,13.50
2022-10-10T05:22:27.355Z,13.93
2022-10-10T05:24:54.650Z,12.95
2022-10-10T05:27:21.927Z,14.25
2022-10-10T05:29:49.153Z,14.05
2022-10-10T05:32:16.423Z,14.52
2022-10-10T05:34:43.703Z,14.15
2022-10-10T05:37:11.474Z,15.02
2022-10-10T05:39:39.049Z,14.40
2022-10-10T05:42:06.376Z,14.35
2022-10-10T05:44:33.928Z,13.77
2022-10-10T05:47:01.229Z,15.57
2022-10-10T05:49:28.721Z,15.73
2022-10-10T05:51:55.951Z,14.90
2022-10-10T05:54:23.172Z,14.35
2022-10-10T05:56:50.431Z,15.40
2022-10-10T05:59:17.710Z,13.95
2022-10-10T06:01:44.979Z,15.30
2022-10-10T06:04:12.288Z,13.77
2022-10-10T06:06:39.580Z,12.13
2022-10-10T06:09:06.857Z,12.25
2022-10-10T06:11:34.228Z,12.25
2022-10-10T06:14:01.488Z,11.10
2022-10-10T06:16:29.310Z,10.48
2022-10-10T06:18:59.519Z,11.82
2022-10-10T06:21:26.931Z,12.77
2022-10-10T06:23:54.334Z,11.10
2022-10-10T06:26:21.719Z,11.40
2022-10-10T06:28:50.857Z,9.18
2022-10-10T06:31:18.495Z,10.38
2022-10-10T06:33:45.745Z,8.63
2022-10-10T06:36:14.113Z,9.57
2022-10-10T06:38:41.971Z,9.50
2022-10-10T06:41:09.722Z,10.07
2022-10-10T06:43:39.715Z,9.85
2022-10-10T06:46:07.821Z,8.23
2022-10-10T06:48:35.711Z,8.40
2022-10-10T06:51:05.367Z,8.23
2022-10-10T06:53:33.191Z,7.35
2022-10-10T06:56:00.617Z,6.90
2022-10-10T06:58:28.385Z,7.43
2022-10-10T07:00:56.485Z,7.22
2022-10-10T07:03:23.943Z,6.20
2022-10-10T07:05:55.003Z,6.85
2022-10-10T07:08:24.568Z,6.85
2022-10-10T07:10:52.091Z,6.28
2022-10-10T07:13:19.850Z,5.75
2022-10-10T07:15:47.205Z,5.70
2022-10-10T07:18:14.560Z,5.60
2022-10-10T07:20:41.904Z,5.78
2022-10-10T07:23:09.214Z,5.88
2022-10-10T07:25:39.364Z,6.13
2022-10-10T07:28:07.619Z,6.50
2022-10-10T07:30:35.420Z,6.32
2022-10-10T07:33:02.700Z,4.07
2022-10-10T07:35:29.973Z,3.70
2022-10-10T07:37:57.313Z,3.38
2022-10-10T07:40:24.786Z,4.07
2022-10-10T07:42:52.382Z,3.90
2022-10-10T07:45:19.917Z,3.95
2022-10-10T07:47:47.166Z,4.15
2022-10-10T07:50:14.817Z,4.03
2022-10-10T07:52:42.391Z,3.80
2022-10-10T07:55:09.972Z,3.65
2022-10-10T07:57:37.652Z,3.70
2022-10-10T08:00:06.276Z,4.15
2022-10-10T08:02:33.589Z,4.03
2022-10-10T08:05:00.839Z,4.20
2022-10-10T08:07:28.350Z,4.57
2022-10-10T08:09:55.603Z,3.92
2022-10-10T08:12:23.164Z,3.70
2022-10-10T08:14:50.531Z,3.28
2022-10-10T08:17:17.832Z,3.00
2022-10-10T08:19:45.096Z,2.90
2022-10-10T08:22:13.089Z,2.90
2022-10-10T08:24:40.331Z,2.65
2022-10-10T08:27:07.605Z,2.65
2022-10-10T08:29:35.007Z,2.45
2022-10-10T08:32:02.278Z,2.45
2022-10-10T08:34:29.613Z,2.45
2022-10-10T08:36:56.902Z,2.65
2022-10-10T08:39:24.223Z,2.55
2022-10-10T08:41:59.431Z,2.97
2022-10-10T08:44:33.289Z,2.05
2022-10-10T08:47:12.478Z,2.97
2022-10-10T08:49:43.271Z,2.15
2022-10-10T08:52:13.734Z,2.70
2022-10-10T08:54:42.102Z,2.60
2022-10-10T08:57:16.162Z,2.20
2022-10-10T08:59:43.800Z,2.63
2022-10-10T09:02:38.261Z,2.15
2022-10-10T09:05:19.788Z,2.13
2022-10-10T09:07:56.271Z,1.93
2022-10-10T09:10:41.266Z,2.33
2022-10-10T09:13:27.035Z,2.03
2022-10-10T09:16:07.277Z,1.98
2022-10-10T09:18:44.822Z,1.98
2022-10-10T09:21:12.794Z,2.35
2022-10-10T09:23:47.968Z,2.72
2022-10-10T09:26:16.740Z,1.80
2022-10-10T09:29:05.270Z,1.67
2022-10-10T09:31:44.590Z,1.30
2022-10-10T09:34:15.080Z,1.67
2022-10-10T09:36:42.365Z,1.92
2022-10-10T09:39:28.375Z,1.73
2022-10-10T09:42:02.403Z,1.98
2022-10-10T09:44:29.897Z,1.67
2022-10-10T09:46:59.184Z,2.38
2022-10-10T09:49:26.589Z,1.73
2022-10-10T09:51:53.961Z,1.73
2022-10-10T09:54:21.402Z,1.90
2022-10-10T09:56:50.996Z,1.75
2022-10-10T09:59:37.388Z,2.03
2022-10-10T10:02:11.170Z,2.00
2022-10-10T10:04:38.502Z,2.35
2022-10-10T10:07:08.987Z,2.20
2022-10-10T10:09:36.295Z,1.77
2022-10-10T10:12:05.568Z,2.28
2022-10-10T10:14:36.667Z,2.30
2022-10-10T10:17:08.776Z,2.70
2022-10-10T10:19:37.233Z,2.33
2022-10-10T10:22:05.133Z,2.30
2022-10-10T10:24:36.573Z,2.20
2022-10-10T10:27:10.139Z,1.92
2022-10-10T10:29:46.931Z,2.40
2022-10-10T10:32:26.489Z,1.80
2022-10-10T10:34:59.880Z,1.30
2022-10-10T10:37:39.375Z,1.73
2022-10-10T10:40:15.921Z,1.77
2022-10-10T10:42:43.130Z,1.55
2022-10-10T10:45:10.525Z,2.30
2022-10-10T10:47:43.891Z,2.08
2022-10-10T10:50:11.122Z,3.38
2022-10-10T10:52:38.382Z,1.48
2022-10-10T10:55:05.621Z,1.90
2022-10-10T10:57:40.565Z,1.92
2022-10-10T11:01:19.866Z,1.10
2022-10-10T11:05:20.844Z,1.67
2022-10-10T11:13:04.379Z,1.50
2022-10-10T11:18:36.649Z,1.27
2022-10-10T11:21:24.123Z,1.45
2022-10-10T11:23:56.853Z,1.52
2022-10-10T11:26:36.543Z,1.00
2022-10-10T11:29:06.605Z,1.05
2022-10-10T11:31:53.307Z,1.15
2022-10-10T11:34:22.887Z,1.20
2022-10-10T11:36:52.301Z,1.45
2022-10-10T11:39:30.279Z,1.10
2022-10-10T11:42:00.726Z,1.02
2022-10-10T11:44:27.959Z,1.10
2022-10-10T11:46:55.190Z,1.00
2022-10-10T11:49:25.725Z,0.98
2022-10-10T11:52:15.042Z,0.80
2022-10-10T11:54:49.090Z,1.20
2022-10-10T11:57:22.642Z,1.40
2022-10-10T11:59:52.916Z,1.02
2022-10-10T12:02:22.253Z,1.00
2022-10-10T12:04:52.151Z,1.17
2022-10-10T12:07:21.963Z,1.75
2022-10-10T12:09:52.546Z,2.15
2022-10-10T12:12:23.443Z,1.30
2022-10-10T12:14:54.338Z,1.50
2022-10-10T12:17:23.014Z,1.80
2022-10-10T12:19:51.641Z,1.23
2022-10-10T12:22:28.735Z,1.48
2022-10-10T12:25:21.520Z,1.50
2022-10-10T12:28:03.087Z,0.57
2022-10-10T12:30:30.485Z,0.50
2022-10-10T12:32:58.051Z,1.02
2022-10-10T12:35:34.309Z,0.88
2022-10-10T12:38:20.241Z,0.80
2022-10-10T12:41:13.657Z,1.13
2022-10-10T12:43:40.946Z,1.00
2022-10-10T12:46:08.664Z,0.82
2022-10-10T12:48:36.569Z,1.00
2022-10-10T12:51:04.413Z,1.15
2022-10-10T12:53:33.366Z,1.05
2022-10-10T12:56:01.868Z,1.05
2022-10-10T12:58:34.271Z,1.15
2022-10-10T13:01:03.987Z,1.05
2022-10-10T13:03:33.510Z,1.30
2022-10-10T13:06:05.034Z,1.20
2022-10-10T13:08:32.954Z,1.20
2022-10-10T13:11:03.517Z,1.10
2022-10-10T13:13:31.257Z,0.85
2022-10-10T13:16:07.188Z,0.82
2022-10-10T13:18:41.716Z,1.10
2022-10-10T13:21:10.465Z,0.93
2022-10-10T13:23:41.082Z,0.55
2022-10-10T13:26:16.786Z,0.95
2022-10-10T13:28:45.710Z,1.00
2022-10-10T13:31:13.899Z,1.15
2022-10-10T13:33:41.579Z,1.10
2022-10-10T13:36:18.722Z,0.95
2022-10-10T13:38:47.400Z,1.20
2022-10-10T13:41:14.996Z,1.38
2022-10-10T13:43:42.641Z,1.08
2022-10-10T13:46:20.740Z,1.10
2022-10-10T13:48:48.164Z,1.38
2022-10-10T13:51:15.777Z,1.85
2022-10-10T13:53:43.034Z,1.00
2022-10-10T13:56:28.832Z,1.52
2022-10-10T13:59:02.181Z,1.40
2022-10-10T14:01:32.699Z,1.25
2022-10-10T14:04:02.421Z,1.77
2022-10-10T14:06:29.927Z,1.40
2022-10-10T14:08:58.270Z,1.27
2022-10-10T14:11:27.673Z,1.23
2022-10-10T14:13:59.655Z,1.45
2022-10-10T14:16:27.039Z,1.33
2022-10-10T14:18:54.391Z,1.13
2022-10-10T14:21:21.739Z,1.20
2022-10-10T14:23:49.009Z,1.75
2022-10-10T14:26:17.829Z,1.40
2022-10-10T14:28:45.445Z,1.42
2022-10-10T14:31:13.231Z,1.50
2022-10-10T14:33:40.872Z,2.28
2022-10-10T14:36:08.240Z,1.58
2022-10-10T14:38:35.747Z,1.50
2022-10-10T14:41:03.317Z,1.58
2022-10-10T14:43:30.746Z,1.73
2022-10-10T14:45:58.062Z,1.90
2022-10-10T14:48:25.396Z,1.60
2022-10-10T14:50:52.657Z,1.90
2022-10-10T14:53:19.963Z,1.75
2022-10-10T14:55:47.344Z,1.40
2022-10-10T14:58:18.833Z,1.65
2022-10-10T15:00:46.207Z,1.70
2022-10-10T15:03:13.569Z,1.20
2022-10-10T15:05:41.096Z,1.73
2022-10-10T15:08:08.476Z,1.60
2022-10-10T15:10:35.864Z,1.60
2022-10-10T15:13:03.981Z,1.80
2022-10-10T15:15:31.768Z,1.85
2022-10-10T15:17:59.739Z,2.13
2022-10-10T15:20:31.799Z,2.05
2022-10-10T15:23:08.783Z,2.13
2022-10-10T15:25:36.131Z,2.00
2022-10-10T15:28:04.344Z,2.58
2022-10-10T15:30:31.722Z,2.30
2022-10-10T15:32:58.990Z,2.30
2022-10-10T15:35:26.570Z,2.63
2022-10-10T15:37:54.153Z,2.33
2022-10-10T15:40:22.629Z,2.20
2022-10-10T15:42:50.143Z,2.42
2022-10-10T15:48:05.026Z,2.35
2022-10-10T15:50:34.448Z,2.20
2022-10-10T15:53:01.685Z,2.80
2022-10-10T15:55:28.922Z,2.38
2022-10-10T15:57:56.440Z,2.80
2022-10-10T15:59:17.786Z,2.78
2022-10-10T16:00:23.977Z,2.60
2022-10-10T16:02:51.296Z,3.05
2022-10-10T16:05:18.585Z,3.05
2022-10-10T16:07:48.239Z,3.35
2022-10-10T16:10:16.074Z,2.85
2022-10-10T16:12:43.375Z,2.88
2022-10-10T16:15:10.733Z,2.92
2022-10-10T16:17:38.005Z,2.97
2022-10-10T16:20:05.490Z,2.85
2022-10-10T16:22:32.731Z,2.83
2022-10-10T16:27:47.642Z,2.60
2022-10-10T16:30:15.011Z,3.17
2022-10-10T16:32:42.869Z,2.55
2022-10-10T16:35:10.865Z,2.58
2022-10-10T16:37:38.432Z,2.40
2022-10-10T16:40:06.095Z,2.65
2022-10-10T16:42:33.357Z,2.60
2022-10-10T16:45:00.566Z,2.40
2022-10-10T16:47:27.804Z,3.00
2022-10-10T16:49:55.063Z,2.88
2022-10-10T16:52:22.310Z,3.03
2022-10-10T16:54:52.148Z,3.00
2022-10-10T16:57:19.824Z,2.85
2022-10-10T16:59:47.302Z,2.50
2022-10-10T17:02:14.681Z,2.42
2022-10-10T17:04:41.983Z,2.53
2022-10-10T17:07:09.511Z,2.00
2022-10-10T17:09:36.757Z,2.22
2022-10-10T17:12:06.415Z,2.30
2022-10-10T17:14:33.658Z,2.35
2022-10-10T17:17:16.180Z,2.22
2022-10-10T17:19:43.446Z,2.60
2022-10-10T17:22:10.745Z,2.45
2022-10-10T17:24:37.993Z,2.65
2022-10-10T17:27:05.342Z,2.83
2022-10-10T17:29:32.654Z,2.70
2022-10-10T17:32:05.669Z,2.75
2022-10-10T17:34:33.735Z,3.10
2022-10-10T17:37:01.022Z,2.83
2022-10-10T17:39:28.258Z,2.65
2022-10-10T17:41:55.511Z,2.70
2022-10-10T17:44:23.568Z,2.90
2022-10-10T17:46:50.814Z,2.53
2022-10-10T17:49:18.242Z,2.88
2022-10-10T17:51:45.530Z,2.47
2022-10-10T17:54:13.585Z,2.30
2022-10-10T17:56:44.721Z,2.50
2022-10-10T18:01:39.949Z,3.10
2022-10-10T18:04:07.533Z,2.38
2022-10-10T18:06:34.856Z,2.88
2022-10-10T18:09:02.091Z,2.78
2022-10-10T18:11:31.008Z,2.50
2022-10-10T18:14:01.725Z,2.75
2022-10-10T18:16:32.321Z,2.75
2022-10-10T18:18:59.648Z,3.03
2022-10-10T18:21:27.359Z,3.05
2022-10-10T18:23:54.741Z,2.70
2022-10-10T18:26:26.575Z,2.30
2022-10-10T18:28:56.239Z,2.70
2022-10-10T18:31:25.017Z,2.38
2022-10-10T18:33:52.289Z,2.83
2022-10-10T18:36:20.899Z,3.13
2022-10-10T18:38:48.280Z,2.47
2022-10-10T18:41:19.227Z,2.40
2022-10-10T18:43:47.052Z,2.70
2022-10-10T18:46:15.738Z,2.28
2022-10-10T18:48:43.403Z,2.45
2022-10-10T18:51:12.989Z,2.92
2022-10-10T18:53:43.650Z,2.38
2022-10-10T18:56:11.907Z,2.38
2022-10-10T18:58:39.421Z,2.17
2022-10-10T19:01:13.613Z,2.40
2022-10-10T19:03:41.481Z,3.90
2022-10-10T19:06:10.654Z,5.30
2022-10-10T19:08:38.055Z,5.85
2022-10-10T19:11:06.748Z,4.20
2022-10-10T19:13:34.965Z,4.18
2022-10-10T19:16:05.914Z,2.70
2022-10-10T19:18:33.518Z,2.42
2022-10-10T19:21:01.822Z,2.45
2022-10-10T19:23:29.763Z,3.53
2022-10-10T19:25:57.335Z,2.92
2022-10-10T19:28:24.710Z,2.45
2022-10-10T19:30:51.954Z,2.10
2022-10-10T19:33:19.203Z,3.78
2022-10-10T19:35:49.797Z,2.78
2022-10-10T19:38:19.565Z,2.08
2022-10-10T19:40:47.769Z,1.80
2022-10-10T19:43:15.498Z,2.00
2022-10-10T19:45:52.027Z,1.90
2022-10-10T19:48:20.010Z,1.95
2022-10-10T19:50:48.032Z,6.82
2022-10-10T19:53:17.671Z,3.70
2022-10-10T19:56:05.766Z,3.60
2022-10-10T19:58:33.572Z,2.15
2022-10-10T20:01:00.931Z,2.03
2022-10-10T20:03:28.455Z,1.98
2022-10-10T20:06:00.976Z,1.77
2022-10-10T20:08:28.561Z,1.75
2022-10-10T20:10:55.898Z,1.85
2022-10-10T20:13:23.363Z,1.92
2022-10-10T20:15:51.213Z,1.70
2022-10-10T20:18:19.274Z,1.63
2022-10-10T20:20:48.055Z,1.90
2022-10-10T20:23:15.670Z,1.80
2022-10-10T20:25:44.047Z,1.60
2022-10-10T20:28:12.229Z,1.98
2022-10-10T20:30:40.550Z,1.70
2022-10-10T20:33:07.932Z,1.55
2022-10-10T20:35:35.882Z,1.60
2022-10-10T20:38:03.565Z,1.98
2022-10-10T20:40:31.430Z,1.55
2022-10-10T20:42:58.700Z,1.70
2022-10-10T20:45:25.936Z,2.05
2022-10-10T20:47:53.159Z,1.85
2022-10-10T20:50:20.409Z,1.95
2022-10-10T20:52:47.712Z,1.75
2022-10-10T20:55:14.977Z,2.47
2022-10-10T20:57:42.234Z,1.63
2022-10-10T21:00:09.782Z,2.25
2022-10-10T21:02:37.022Z,1.95
2022-10-10T21:05:04.341Z,1.88
2022-10-10T21:07:31.595Z,2.10
2022-10-10T21:09:59.381Z,1.80
2022-10-10T21:12:26.627Z,1.45
2022-10-10T21:14:53.956Z,1.65
2022-10-10T21:17:21.253Z,1.60
2022-10-10T21:19:48.480Z,1.83
2022-10-10T21:22:15.772Z,1.98
2022-10-10T21:24:43.040Z,2.05
2022-10-10T21:27:10.382Z,1.40
2022-10-10T21:29:37.599Z,2.00
2022-10-10T21:32:04.936Z,1.58
2022-10-10T21:34:32.195Z,1.70
2022-10-10T21:36:59.443Z,1.50
2022-10-10T21:39:26.928Z,1.60
2022-10-10T21:41:54.173Z,1.70
2022-10-10T21:44:21.529Z,1.60
2022-10-10T21:46:51.566Z,1.90
2022-10-10T21:49:18.838Z,1.52
2022-10-10T21:51:46.114Z,1.60
2022-10-10T21:54:13.452Z,1.60
2022-10-10T21:56:40.906Z,1.50
2022-10-10T21:59:08.446Z,1.90
2022-10-10T22:01:37.569Z,1.80
2022-10-10T22:04:05.531Z,1.73
2022-10-10T22:06:32.867Z,1.65
2022-10-10T22:09:00.709Z,1.67
2022-10-10T22:11:28.769Z,1.85
2022-10-10T22:13:56.135Z,1.65
2022-10-10T22:16:23.665Z,1.70
2022-10-10T22:18:56.787Z,1.40
2022-10-10T22:21:28.034Z,1.90
2022-10-10T22:23:58.166Z,1.70
2022-10-10T22:26:25.688Z,1.83
2022-10-10T22:28:52.994Z,1.83
2022-10-10T22:31:20.427Z,1.60
2022-10-10T22:33:47.737Z,1.77
2022-10-10T22:36:14.992Z,1.60
2022-10-10T22:38:43.222Z,1.50
2022-10-10T22:41:10.684Z,2.20
2022-10-10T22:43:38.016Z,1.73
2022-10-10T22:46:06.264Z,1.65
2022-10-10T22:48:34.482Z,1.58
2022-10-10T22:51:02.889Z,1.80
2022-10-10T22:53:30.541Z,1.80
2022-10-10T22:55:58.038Z,1.58
2022-10-10T22:58:25.753Z,1.50
2022-10-10T23:00:53.322Z,1.60
2022-10-10T23:03:20.913Z,1.58
2022-10-10T23:05:48.314Z,1.65
2022-10-10T23:08:15.724Z,1.95
2022-10-10T23:10:44.619Z,1.65
2022-10-10T23:13:12.057Z,1.65
2022-10-10T23:15:39.347Z,1.52
2022-10-10T23:18:06.849Z,1.52
2022-10-10T23:20:34.580Z,1.90
2022-10-10T23:23:01.882Z,1.92
2022-10-10T23:25:29.694Z,1.60
2022-10-10T23:27:57.051Z,1.50
2022-10-10T23:30:24.512Z,1.50
2022-10-10T23:32:51.772Z,1.63
2022-10-10T23:35:19.651Z,1.50
2022-10-10T23:37:46.938Z,1.85
2022-10-10T23:40:14.197Z,1.23
2022-10-10T23:42:41.496Z,1.70
2022-10-10T23:45:09.159Z,1.55
2022-10-10T23:47:36.460Z,1.60
2022-10-10T23:50:03.864Z,1.50
2022-10-10T23:52:31.128Z,1.60
2022-10-10T23:54:58.418Z,1.70
2022-10-10T23:57:25.722Z,1.70
2022-10-10T23:59:53.020Z,1.60
